createdAt,value
2023-02-22T00:01:35.436Z,6.50
2023-02-22T00:04:24.581Z,6.60
2023-02-22T00:07:14.970Z,6.60
2023-02-22T00:10:09.203Z,6.70
2023-02-22T00:12:57.977Z,6.70
2023-02-22T00:15:46.969Z,6.50
2023-02-22T00:18:35.592Z,6.50
2023-02-22T00:21:24.270Z,6.40
2023-02-22T00:24:23.415Z,6.50
2023-02-22T00:27:13.629Z,6.30
2023-02-22T00:30:02.421Z,6.30
2023-02-22T00:32:52.807Z,6.30
2023-02-22T00:35:42.139Z,6.30
2023-02-22T00:38:30.953Z,6.20
2023-02-22T00:41:19.907Z,6.20
2023-02-22T00:44:10.115Z,6.30
2023-02-22T00:46:58.809Z,6.20
2023-02-22T00:49:47.580Z,6.20
2023-02-22T00:52:37.232Z,6.20
2023-02-22T00:55:27.982Z,6.10
2023-02-22T00:58:20.100Z,6.10
2023-02-22T01:01:10.148Z,6.20
2023-02-22T01:04:00.675Z,6.00
2023-02-22T01:06:49.668Z,5.80
2023-02-22T01:09:39.725Z,5.90
2023-02-22T01:12:30.171Z,5.90
2023-02-22T01:15:21.960Z,6.00
2023-02-22T01:18:17.450Z,6.00
2023-02-22T01:21:08.620Z,6.00
2023-02-22T01:23:57.321Z,6.00
2023-02-22T01:26:51.072Z,6.00
2023-02-22T01:29:40.675Z,6.00
2023-02-22T01:32:29.866Z,5.90
2023-02-22T01:35:22.703Z,5.90
2023-02-22T01:38:12.344Z,6.00
2023-02-22T01:41:02.046Z,6.00
2023-02-22T01:43:51.276Z,6.00
2023-02-22T01:46:39.904Z,6.20
2023-02-22T01:49:32.193Z,6.20
2023-02-22T01:52:22.874Z,6.20
2023-02-22T01:55:12.076Z,6.00
2023-02-22T01:58:01.276Z,6.10
2023-02-22T02:00:49.951Z,6.10
2023-02-22T02:03:41.640Z,6.10
2023-02-22T02:06:34.727Z,6.00
2023-02-22T02:09:32.002Z,5.90
2023-02-22T02:12:23.740Z,5.90
2023-02-22T02:15:22.253Z,5.90
2023-02-22T02:18:13.303Z,5.90
2023-02-22T02:21:50.624Z,5.90
2023-02-22T02:25:12.053Z,5.90
2023-02-22T02:28:34.654Z,5.90
2023-02-22T02:32:00.484Z,5.90
2023-02-22T02:34:59.165Z,5.90
2023-02-22T02:37:54.195Z,6.00
2023-02-22T02:40:49.423Z,5.80
2023-02-22T02:43:43.994Z,5.80
2023-02-22T02:46:36.198Z,5.80
2023-02-22T02:49:33.132Z,5.60
2023-02-22T02:52:24.588Z,5.80
2023-02-22T02:55:14.534Z,5.70
2023-02-22T02:58:04.837Z,5.80
2023-02-22T03:00:56.634Z,5.90
2023-02-22T03:04:11.738Z,5.80
2023-02-22T03:07:32.750Z,5.70
2023-02-22T03:10:37.935Z,5.90
2023-02-22T03:13:36.412Z,5.90
2023-02-22T03:16:35.218Z,5.80
2023-02-22T03:19:34.811Z,5.80
2023-02-22T03:22:29.039Z,5.80
2023-02-22T03:25:23.597Z,5.70
2023-02-22T03:28:20.587Z,5.70
2023-02-22T03:31:13.931Z,5.60
2023-02-22T03:34:09.362Z,5.70
2023-02-22T03:37:01.128Z,5.70
2023-02-22T03:39:55.121Z,5.70
2023-02-22T03:42:48.657Z,5.60
2023-02-22T03:45:39.939Z,5.50
2023-02-22T03:48:36.450Z,5.60
2023-02-22T03:51:25.840Z,5.60
2023-02-22T03:54:19.860Z,5.80
2023-02-22T03:57:17.051Z,5.70
2023-02-22T04:00:09.373Z,5.60
2023-02-22T04:03:06.054Z,5.50
2023-02-22T04:05:58.320Z,5.60
2023-02-22T04:08:47.341Z,5.60
2023-02-22T04:11:36.438Z,5.60
2023-02-22T04:14:28.787Z,5.50
2023-02-22T04:17:19.655Z,5.60
2023-02-22T04:20:09.757Z,5.60
2023-02-22T04:23:07.809Z,5.60
2023-02-22T04:25:59.848Z,5.20
2023-02-22T04:28:48.709Z,5.10
2023-02-22T04:31:42.122Z,4.10
2023-02-22T04:34:32.237Z,4.00
2023-02-22T04:37:21.139Z,3.80
2023-02-22T04:40:11.650Z,3.90
2023-02-22T04:43:03.600Z,3.70
2023-02-22T04:45:52.406Z,3.80
2023-02-22T04:48:42.513Z,4.00
2023-02-22T04:51:31.215Z,4.00
2023-02-22T04:54:30.133Z,4.20
2023-02-22T04:57:19.004Z,4.30
2023-02-22T05:00:10.420Z,4.30
2023-02-22T05:02:59.490Z,4.10
2023-02-22T05:05:49.694Z,3.60
2023-02-22T05:08:38.694Z,3.90
2023-02-22T05:11:30.992Z,3.90
2023-02-22T05:14:19.776Z,4.00
2023-02-22T05:17:08.470Z,4.20
2023-02-22T05:19:57.286Z,4.20
2023-02-22T05:22:47.491Z,4.20
2023-02-22T05:25:36.382Z,4.00
2023-02-22T05:28:28.412Z,3.90
2023-02-22T05:31:17.917Z,4.00
2023-02-22T05:34:06.750Z,3.90
2023-02-22T05:36:55.613Z,4.10
2023-02-22T05:39:46.563Z,4.30
2023-02-22T05:42:35.205Z,4.60
2023-02-22T05:45:29.024Z,4.40
2023-02-22T05:48:18.098Z,4.00
2023-02-22T05:51:07.585Z,4.00
2023-02-22T05:53:56.293Z,4.00
2023-02-22T05:56:46.399Z,4.00
2023-02-22T05:59:35.193Z,3.70
2023-02-22T06:02:24.025Z,3.80
2023-02-22T06:05:12.824Z,4.00
2023-02-22T06:08:02.078Z,4.20
2023-02-22T06:10:50.875Z,4.20
2023-02-22T06:13:41.676Z,4.00
2023-02-22T06:16:32.027Z,4.20
2023-02-22T06:19:20.844Z,4.10
2023-02-22T06:22:09.609Z,4.20
2023-02-22T06:24:58.353Z,4.00
2023-02-22T06:27:46.948Z,4.20
2023-02-22T06:30:37.219Z,4.50
2023-02-22T06:33:25.869Z,4.30
2023-02-22T06:36:14.731Z,4.00
2023-02-22T06:39:07.116Z,3.80
2023-02-22T06:41:57.824Z,3.90
2023-02-22T06:44:46.440Z,4.00
2023-02-22T06:47:40.011Z,4.30
2023-02-22T06:50:30.420Z,4.10
2023-02-22T06:53:19.388Z,3.90
2023-02-22T06:56:08.304Z,4.00
2023-02-22T06:59:02.819Z,3.90
2023-02-22T07:01:51.852Z,4.10
2023-02-22T07:04:43.650Z,4.00
2023-02-22T07:07:32.593Z,3.80
2023-02-22T07:10:27.516Z,3.60
2023-02-22T07:13:17.072Z,3.60
2023-02-22T07:16:06.306Z,3.70
2023-02-22T07:18:55.007Z,3.70
2023-02-22T07:21:48.019Z,3.70
2023-02-22T07:24:36.712Z,3.70
2023-02-22T07:27:25.460Z,4.00
2023-02-22T07:30:25.133Z,4.20
2023-02-22T07:33:14.975Z,4.10
2023-02-22T07:36:04.492Z,4.20
2023-02-22T07:38:54.665Z,4.40
2023-02-22T07:41:43.453Z,4.40
2023-02-22T07:44:44.703Z,4.50
2023-02-22T07:47:33.609Z,4.40
2023-02-22T07:50:24.502Z,4.20
2023-02-22T07:53:18.814Z,4.20
2023-02-22T07:56:09.079Z,4.30
2023-02-22T07:58:57.758Z,4.10
2023-02-22T08:01:46.421Z,4.10
2023-02-22T08:04:35.142Z,4.30
2023-02-22T08:07:23.843Z,4.40
2023-02-22T08:10:12.598Z,4.60
2023-02-22T08:13:03.656Z,4.90
2023-02-22T08:15:54.396Z,4.90
2023-02-22T08:18:43.340Z,5.10
2023-02-22T08:21:32.218Z,4.70
2023-02-22T08:24:20.963Z,5.00
2023-02-22T08:27:09.802Z,4.90
2023-02-22T08:30:00.021Z,4.70
2023-02-22T08:32:49.787Z,4.80
2023-02-22T08:35:40.998Z,5.10
2023-02-22T08:38:34.124Z,5.20
2023-02-22T08:41:22.787Z,5.20
2023-02-22T08:44:11.701Z,5.20
2023-02-22T08:47:02.115Z,4.90
2023-02-22T08:49:50.696Z,4.80
2023-02-22T08:52:39.376Z,4.50
2023-02-22T08:55:30.324Z,4.50
2023-02-22T08:58:19.319Z,4.70
2023-02-22T09:01:08.051Z,5.00
2023-02-22T09:03:58.334Z,5.30
2023-02-22T09:06:51.786Z,5.40
2023-02-22T09:09:40.926Z,5.10
2023-02-22T09:12:29.714Z,5.10
2023-02-22T09:15:19.407Z,5.20
2023-02-22T09:18:09.823Z,5.10
2023-02-22T09:21:00.369Z,4.80
2023-02-22T09:23:49.533Z,4.90
2023-02-22T09:26:40.058Z,5.10
2023-02-22T09:29:29.257Z,5.00
2023-02-22T09:32:18.699Z,5.10
2023-02-22T09:35:13.095Z,4.90
2023-02-22T09:38:04.299Z,4.90
2023-02-22T09:40:55.915Z,5.00
2023-02-22T09:43:50.738Z,5.20
2023-02-22T09:46:42.185Z,5.20
2023-02-22T09:49:38.716Z,5.00
2023-02-22T09:52:30.926Z,5.00
2023-02-22T09:55:34.239Z,5.10
2023-02-22T09:58:27.598Z,4.60
2023-02-22T10:01:26.748Z,5.00
2023-02-22T10:04:22.190Z,4.90
2023-02-22T10:07:21.877Z,4.60
2023-02-22T10:10:18.401Z,4.80
2023-02-22T10:13:21.133Z,4.90
2023-02-22T10:16:19.154Z,5.00
2023-02-22T10:19:18.114Z,4.90
2023-02-22T10:22:22.000Z,4.80
2023-02-22T10:25:13.946Z,4.70
2023-02-22T10:28:07.274Z,4.20
2023-02-22T10:31:03.597Z,4.20
2023-02-22T10:33:58.168Z,4.10
2023-02-22T10:36:49.088Z,4.00
2023-02-22T10:39:40.993Z,3.80
2023-02-22T10:42:31.359Z,3.60
2023-02-22T10:45:24.336Z,3.40
2023-02-22T10:48:18.592Z,3.50
2023-02-22T10:51:08.891Z,3.50
2023-02-22T10:54:04.044Z,3.30
2023-02-22T10:56:55.624Z,3.20
2023-02-22T10:59:44.941Z,3.30
2023-02-22T11:02:36.448Z,3.20
2023-02-22T11:05:37.332Z,3.60
2023-02-22T11:08:31.013Z,3.40
2023-02-22T11:11:29.267Z,3.10
2023-02-22T11:14:27.779Z,3.20
2023-02-22T11:17:24.352Z,3.20
2023-02-22T11:20:25.449Z,3.40
2023-02-22T11:23:23.881Z,3.20
2023-02-22T11:26:15.668Z,3.50
2023-02-22T11:29:12.520Z,3.80
2023-02-22T11:32:05.592Z,4.10
2023-02-22T11:35:32.353Z,3.90
2023-02-22T11:38:23.374Z,3.50
2023-02-22T11:41:18.781Z,3.40
2023-02-22T11:44:22.107Z,3.70
2023-02-22T11:47:13.405Z,3.70
2023-02-22T11:50:03.421Z,3.60
2023-02-22T11:53:04.063Z,3.50
2023-02-22T11:56:01.124Z,3.50
2023-02-22T11:58:54.837Z,4.00
2023-02-22T12:01:48.555Z,3.70
2023-02-22T12:04:49.994Z,3.80
2023-02-22T12:07:57.181Z,3.80
2023-02-22T12:10:58.760Z,3.80
2023-02-22T12:14:02.177Z,3.70
2023-02-22T12:17:18.126Z,4.00
2023-02-22T12:20:16.562Z,4.30
2023-02-22T12:23:19.642Z,3.80
2023-02-22T12:26:13.803Z,4.10
2023-02-22T12:29:07.997Z,4.10
2023-02-22T12:32:02.189Z,4.10
2023-02-22T12:34:56.214Z,4.00
2023-02-22T12:37:58.495Z,4.00
2023-02-22T12:40:57.202Z,4.00
2023-02-22T12:43:51.804Z,4.20
2023-02-22T12:46:43.555Z,4.30
2023-02-22T12:49:39.917Z,4.50
2023-02-22T12:52:41.494Z,4.60
2023-02-22T12:55:36.575Z,4.70
2023-02-22T12:58:31.443Z,4.50
2023-02-22T13:01:24.937Z,4.00
2023-02-22T13:04:20.959Z,3.70
2023-02-22T13:07:18.466Z,3.80
2023-02-22T13:10:50.808Z,4.10
2023-02-22T13:13:54.931Z,4.10
2023-02-22T13:16:52.854Z,3.90
2023-02-22T13:19:48.584Z,3.80
2023-02-22T13:22:45.702Z,4.00
2023-02-22T13:25:42.794Z,4.10
2023-02-22T13:28:37.603Z,4.20
2023-02-22T13:31:49.268Z,4.40
2023-02-22T13:35:08.590Z,4.20
2023-02-22T13:38:24.227Z,4.30
2023-02-22T13:41:44.992Z,4.20
2023-02-22T13:44:56.836Z,4.40
2023-02-22T13:48:05.388Z,4.30
2023-02-22T13:51:07.324Z,4.30
2023-02-22T13:53:59.459Z,4.30
2023-02-22T13:56:50.923Z,4.00
2023-02-22T13:59:40.356Z,4.10
2023-02-22T14:02:36.778Z,4.20
2023-02-22T14:05:52.633Z,4.40
2023-02-22T14:08:43.220Z,4.30
2023-02-22T14:11:54.320Z,3.90
2023-02-22T14:15:29.098Z,3.80
2023-02-22T14:18:19.031Z,3.90
2023-02-22T14:21:11.407Z,3.70
2023-02-22T14:24:08.910Z,3.70
2023-02-22T14:27:01.460Z,3.60
2023-02-22T14:29:56.148Z,3.60
2023-02-22T14:32:45.050Z,3.80
2023-02-22T14:35:49.507Z,3.80
2023-02-22T14:38:40.528Z,3.70
2023-02-22T14:41:33.162Z,3.70
2023-02-22T14:44:26.613Z,3.70
2023-02-22T14:47:21.805Z,3.70
2023-02-22T14:50:17.715Z,4.10
2023-02-22T14:53:19.295Z,3.90
2023-02-22T14:56:17.781Z,4.00
2023-02-22T14:59:17.932Z,3.30
2023-02-22T15:02:11.806Z,3.50
2023-02-22T15:05:01.424Z,3.60
2023-02-22T15:07:56.318Z,3.40
2023-02-22T15:10:47.188Z,3.50
2023-02-22T15:13:37.200Z,3.70
2023-02-22T15:16:28.910Z,3.80
2023-02-22T15:19:25.286Z,3.50
2023-02-22T15:22:23.076Z,3.30
2023-02-22T15:25:12.957Z,3.20
2023-02-22T15:28:09.534Z,3.20
2023-02-22T15:31:26.611Z,3.10
2023-02-22T15:34:27.095Z,3.00
2023-02-22T15:37:25.553Z,2.80
2023-02-22T15:40:17.434Z,2.90
2023-02-22T15:43:08.960Z,3.10
2023-02-22T15:45:59.277Z,3.10
2023-02-22T15:49:06.441Z,3.40
2023-02-22T15:52:06.385Z,3.20
2023-02-22T15:54:55.264Z,3.00
2023-02-22T15:57:44.754Z,2.80
2023-02-22T16:00:37.189Z,2.80
2023-02-22T16:03:28.783Z,2.70
2023-02-22T16:06:35.413Z,3.00
2023-02-22T16:09:26.494Z,3.20
2023-02-22T16:12:27.881Z,3.20
2023-02-22T16:15:19.157Z,3.30
2023-02-22T16:18:31.480Z,3.30
2023-02-22T16:21:23.948Z,3.50
2023-02-22T16:24:29.512Z,3.40
2023-02-22T16:27:20.654Z,3.20
2023-02-22T16:30:26.093Z,3.20
2023-02-22T16:33:16.721Z,3.40
2023-02-22T16:36:08.154Z,3.30
2023-02-22T16:38:58.447Z,3.20
2023-02-22T16:41:47.500Z,3.20
2023-02-22T16:44:36.232Z,3.30
2023-02-22T16:47:25.088Z,3.20
2023-02-22T16:50:17.150Z,3.10
2023-02-22T16:53:06.117Z,3.00
2023-02-22T16:56:02.211Z,3.00
2023-02-22T16:58:53.562Z,3.00
2023-02-22T17:01:42.680Z,3.10
2023-02-22T17:04:32.156Z,3.00
2023-02-22T17:07:24.109Z,3.00
2023-02-22T17:10:17.644Z,3.20
2023-02-22T17:13:21.771Z,3.30
2023-02-22T17:16:15.878Z,3.30
2023-02-22T17:19:05.190Z,3.50
2023-02-22T17:21:54.354Z,3.60
2023-02-22T17:24:43.057Z,3.60
2023-02-22T17:27:31.974Z,3.50
2023-02-22T17:30:23.978Z,3.30
2023-02-22T17:33:17.397Z,3.40
2023-02-22T17:36:06.948Z,3.30
2023-02-22T17:38:55.905Z,3.30
2023-02-22T17:41:45.261Z,3.60
2023-02-22T17:44:35.373Z,3.80
2023-02-22T17:47:25.615Z,3.50
2023-02-22T17:50:15.637Z,3.50
2023-02-22T17:53:04.379Z,3.50
2023-02-22T17:55:53.406Z,3.60
2023-02-22T17:58:42.703Z,3.60
2023-02-22T18:01:33.908Z,3.80
2023-02-22T18:04:24.177Z,3.90
2023-02-22T18:07:14.424Z,3.60
2023-02-22T18:10:05.437Z,3.50
2023-02-22T18:12:55.202Z,3.50
2023-02-22T18:15:44.299Z,3.70
2023-02-22T18:18:33.491Z,3.40
2023-02-22T18:21:24.662Z,3.40
2023-02-22T18:24:13.402Z,3.40
2023-02-22T18:27:03.826Z,3.50
2023-02-22T18:29:52.644Z,3.50
2023-02-22T18:32:41.760Z,3.60
2023-02-22T18:35:31.015Z,3.60
2023-02-22T18:38:24.380Z,3.40
2023-02-22T18:41:15.531Z,3.30
2023-02-22T18:44:04.990Z,3.30
2023-02-22T18:46:54.667Z,3.40
2023-02-22T18:49:43.442Z,3.30
2023-02-22T18:52:32.252Z,3.50
2023-02-22T18:55:23.397Z,3.50
2023-02-22T18:58:12.194Z,3.40
2023-02-22T19:01:01.365Z,3.60
2023-02-22T19:03:51.680Z,3.40
2023-02-22T19:06:41.033Z,3.30
2023-02-22T19:09:31.099Z,3.00
2023-02-22T19:12:21.185Z,3.00
2023-02-22T19:15:12.000Z,3.20
2023-02-22T19:18:01.049Z,3.40
2023-02-22T19:20:57.249Z,3.40
2023-02-22T19:23:47.680Z,3.10
2023-02-22T19:26:36.461Z,2.90
2023-02-22T19:29:26.603Z,3.10
2023-02-22T19:32:17.311Z,2.90
2023-02-22T19:35:07.350Z,2.90
2023-02-22T19:37:57.224Z,2.90
2023-02-22T19:40:46.074Z,3.10
2023-02-22T19:43:34.739Z,2.90
2023-02-22T19:46:25.158Z,2.80
2023-02-22T19:49:13.862Z,2.90
2023-02-22T19:52:03.913Z,2.90
2023-02-22T19:54:53.826Z,3.00
2023-02-22T19:57:43.603Z,3.00
2023-02-22T20:00:35.610Z,3.00
2023-02-22T20:03:27.082Z,2.60
2023-02-22T20:06:16.682Z,2.80
2023-02-22T20:09:06.820Z,2.80
2023-02-22T20:11:55.711Z,2.80
2023-02-22T20:14:46.304Z,2.60
2023-02-22T20:17:34.998Z,2.50
2023-02-22T20:20:25.823Z,2.60
2023-02-22T20:23:14.607Z,2.80
2023-02-22T20:26:04.514Z,2.70
2023-02-22T20:28:54.295Z,2.80
2023-02-22T20:31:43.921Z,2.80
2023-02-22T20:34:34.188Z,2.90
2023-02-22T20:37:24.464Z,2.80
2023-02-22T20:40:13.605Z,3.00
2023-02-22T20:43:02.530Z,2.80
2023-02-22T20:45:51.286Z,2.80
2023-02-22T20:48:40.179Z,2.70
2023-02-22T20:51:31.281Z,2.60
2023-02-22T20:54:21.533Z,2.70
2023-02-22T20:57:10.333Z,2.80
2023-02-22T20:59:59.201Z,2.60
2023-02-22T21:02:48.000Z,2.70
2023-02-22T21:05:36.682Z,2.90
2023-02-22T21:08:25.399Z,3.00
2023-02-22T21:11:17.966Z,2.80
2023-02-22T21:14:06.818Z,2.90
2023-02-22T21:16:55.644Z,3.00
2023-02-22T21:19:44.933Z,2.90
2023-02-22T21:22:34.147Z,3.00
2023-02-22T21:25:22.950Z,2.60
2023-02-22T21:28:13.105Z,2.50
2023-02-22T21:31:07.311Z,2.60
2023-02-22T21:33:58.206Z,2.60
2023-02-22T21:36:47.272Z,2.70
2023-02-22T21:39:36.273Z,2.70
2023-02-22T21:42:25.345Z,2.80
2023-02-22T21:45:16.010Z,2.60
2023-02-22T21:48:05.193Z,2.80
2023-02-22T21:50:54.238Z,2.50
2023-02-22T21:53:46.135Z,2.60
2023-02-22T21:56:37.919Z,2.40
2023-02-22T21:59:26.656Z,2.60
2023-02-22T22:02:16.958Z,2.70
2023-02-22T22:05:06.194Z,2.60
2023-02-22T22:07:55.008Z,2.40
2023-02-22T22:10:43.969Z,2.50
2023-02-22T22:13:32.762Z,2.50
2023-02-22T22:16:22.346Z,2.70
2023-02-22T22:19:13.175Z,2.70
2023-02-22T22:22:02.894Z,2.60
2023-02-22T22:24:54.030Z,2.60
2023-02-22T22:27:42.838Z,2.50
2023-02-22T22:30:31.484Z,2.50
2023-02-22T22:33:20.244Z,2.50
2023-02-22T22:36:11.833Z,2.40
2023-02-22T22:39:13.057Z,2.40
2023-02-22T22:42:02.028Z,2.40
2023-02-22T22:44:51.693Z,2.30
2023-02-22T22:47:45.962Z,2.50
2023-02-22T22:50:35.497Z,2.70
2023-02-22T22:53:25.688Z,2.50
2023-02-22T22:56:17.669Z,2.50
2023-02-22T22:59:09.766Z,2.70
2023-02-22T23:01:58.659Z,2.40
2023-02-22T23:04:51.739Z,2.50
2023-02-22T23:07:40.369Z,2.30
2023-02-22T23:10:30.457Z,2.20
2023-02-22T23:13:21.191Z,2.00
2023-02-22T23:16:12.388Z,2.20
2023-02-22T23:19:01.231Z,2.00
2023-02-22T23:21:51.124Z,1.90
2023-02-22T23:24:40.642Z,1.90
2023-02-22T23:27:31.115Z,2.10
2023-02-22T23:30:20.551Z,2.20
2023-02-22T23:33:10.002Z,2.30
2023-02-22T23:36:04.494Z,2.30
2023-02-22T23:38:54.354Z,2.00
2023-02-22T23:41:43.435Z,1.90
2023-02-22T23:44:34.213Z,2.00
2023-02-22T23:47:22.937Z,2.00
2023-02-22T23:50:14.508Z,2.10
2023-02-22T23:53:03.887Z,2.20
2023-02-22T23:55:52.842Z,2.00
2023-02-22T23:58:47.131Z,1.80
